.
WxDataArchive / Data Records for 2014-07-29
2014-07-28 July 2014 2014-07-30

Data Records for Tuesday, 29 July 2014

Time	Temp	Chill	HIndex	Humid	Dewpt	 Wind 	HiWind	WindDir	Rain 	Barom
-----	----	-----	------	-----	-----	------	------	-------	-----	-----
00:00	55.7	55.7	55.7	82	50.3	0	1	315	0.00	29.994 
00:05	55.6	55.6	55.6	82	50.2	0	1	315	0.00	29.994 
00:10	55.6	55.6	55.6	83	50.5	0	0	---	0.00	29.994 
00:15	55.4	55.4	55.4	83	50.3	0	0	---	0.00	29.995 
00:20	55.4	55.4	55.4	83	50.3	0	0	---	0.00	29.995 
00:25	55.3	55.3	55.3	83	50.2	0	0	---	0.00	29.995 
00:30	55.1	55.1	55.1	84	50.4	0	0	---	0.00	29.996 
00:35	55.0	55.0	55.0	84	50.3	0	0	---	0.00	29.996 
00:40	54.8	54.8	54.8	84	50.1	0	0	---	0.00	29.996 
00:45	54.8	54.8	54.8	84	50.1	0	0	---	0.00	29.997 
00:50	54.7	54.7	54.7	84	50.0	0	0	---	0.00	29.997 
00:55	54.7	54.7	54.7	84	50.0	0	1	315	0.00	29.997 
01:00	54.5	54.5	54.5	85	50.1	0	0	---	0.00	29.999 
01:05	54.5	54.5	54.5	85	50.1	0	0	---	0.00	29.999 
01:10	54.4	54.4	54.4	85	50.0	0	0	---	0.00	29.999 
01:15	54.4	54.4	54.4	85	50.0	0	0	---	0.00	29.997 
01:20	54.2	54.2	54.2	85	49.8	0	0	---	0.00	29.997 
01:25	54.1	54.1	54.1	85	49.7	0	0	---	0.00	29.997 
01:30	53.9	53.9	53.9	86	49.8	0	0	---	0.00	29.997 
01:35	53.8	53.8	53.8	86	49.7	0	0	---	0.00	29.997 
01:40	53.8	53.8	53.8	86	49.7	0	0	---	0.00	29.997 
01:45	53.6	53.6	53.6	86	49.5	0	0	---	0.00	29.993 
01:50	53.5	53.5	53.5	87	49.7	0	0	---	0.00	29.993 
01:55	53.5	53.5	53.5	87	49.7	0	0	---	0.00	29.993 
02:00	53.3	53.3	53.3	87	49.5	0	0	---	0.00	29.996 
02:05	53.2	53.2	53.2	87	49.4	0	0	---	0.00	29.996 
02:10	53.2	53.2	53.2	88	49.7	0	0	---	0.00	29.996 
02:15	53.1	53.1	53.1	88	49.6	0	0	---	0.00	29.993 
02:20	53.1	53.1	53.1	88	49.6	0	0	---	0.00	29.993 
02:25	52.9	52.9	52.9	88	49.4	0	0	---	0.00	29.993 
02:30	52.8	52.8	52.8	88	49.3	0	0	---	0.00	29.992 
02:35	52.6	52.6	52.6	88	49.1	0	0	---	0.00	29.992 
02:40	52.5	52.5	52.5	88	49.0	0	0	---	0.00	29.992 
02:45	52.5	52.5	52.5	89	49.4	0	0	---	0.00	29.988 
02:50	52.3	52.3	52.3	89	49.2	0	0	---	0.00	29.988 
02:55	52.3	52.3	52.3	89	49.2	0	0	---	0.00	29.988 
03:00	52.2	52.2	52.2	89	49.1	0	0	---	0.00	29.989 
03:05	52.0	52.0	52.0	89	48.9	0	0	---	0.00	29.989 
03:10	51.9	51.9	51.9	89	48.8	0	0	---	0.00	29.989 
03:15	51.7	51.7	51.7	89	48.6	0	0	---	0.00	29.986 
03:20	51.6	51.6	51.6	89	48.5	0	0	---	0.00	29.986 
03:25	51.6	51.6	51.6	90	48.8	0	0	---	0.00	29.986 
03:30	51.4	51.4	51.4	90	48.6	0	0	---	0.00	29.988 
03:35	51.3	51.3	51.3	90	48.5	0	0	---	0.00	29.988 
03:40	51.3	51.3	51.3	90	48.5	0	0	---	0.00	29.988 
03:45	51.3	51.3	51.3	90	48.5	0	0	---	0.00	29.987 
03:50	51.4	51.4	51.4	90	48.6	0	0	---	0.00	29.987 
03:55	51.4	51.4	51.4	91	48.9	0	0	---	0.00	29.987 
04:00	51.6	51.6	51.6	91	49.1	0	0	---	0.00	29.986 
04:05	51.6	51.6	51.6	91	49.1	0	0	---	0.00	29.986 
04:10	51.7	51.7	51.7	91	49.2	0	0	---	0.00	29.986 
04:15	51.7	51.7	51.7	91	49.2	0	0	---	0.00	29.989 
04:20	51.7	51.7	51.7	91	49.2	0	0	---	0.00	29.989 
04:25	51.6	51.6	51.6	91	49.1	0	0	---	0.00	29.989 
04:30	51.6	51.6	51.6	91	49.1	0	0	---	0.00	29.988 
04:35	51.4	51.4	51.4	91	48.9	0	0	---	0.00	29.988 
04:40	51.3	51.3	51.3	91	48.8	0	0	---	0.00	29.988 
04:45	51.1	51.1	51.1	92	48.9	0	0	---	0.00	29.987 
04:50	51.0	51.0	51.0	92	48.8	0	0	---	0.00	29.987 
04:55	51.0	51.0	51.0	92	48.8	0	0	---	0.00	29.987 
05:00	50.8	50.8	50.8	92	48.6	0	0	---	0.00	29.989 
05:05	50.7	50.7	50.7	92	48.5	0	0	---	0.00	29.989 
05:10	50.5	50.5	50.5	92	48.3	0	0	---	0.00	29.989 
05:15	50.4	50.4	50.4	92	48.2	0	0	---	0.00	29.997 
05:20	50.2	50.2	50.2	92	48.0	0	0	---	0.00	29.997 
05:25	50.1	50.1	50.1	92	47.9	0	0	---	0.00	29.997 
05:30	50.1	50.1	50.1	92	47.9	0	0	---	0.00	30.003 
05:35	49.9	49.9	49.9	92	47.7	0	0	---	0.00	30.003 
05:40	49.9	49.9	49.9	92	47.7	0	0	---	0.00	30.003 
05:45	49.8	49.8	49.8	92	47.6	0	0	---	0.00	30.000 
05:50	49.8	49.8	49.8	92	47.6	0	0	---	0.00	30.000 
05:55	49.6	49.6	49.6	92	47.4	0	0	---	0.00	30.000 
06:00	49.6	49.6	49.6	92	47.4	0	0	---	0.00	30.005 
06:05	49.6	49.6	49.6	92	47.4	0	0	---	0.00	30.005 
06:10	49.6	49.6	49.6	92	47.4	0	0	---	0.00	30.005 
06:15	49.6	49.6	49.6	93	47.7	0	0	---	0.00	30.010 
06:20	49.6	49.6	49.6	93	47.7	0	0	---	0.00	30.010 
06:25	49.6	49.6	49.6	93	47.7	0	0	---	0.00	30.010 
06:30	49.5	49.5	49.5	93	47.6	0	0	---	0.00	30.010 
06:35	49.5	49.5	49.5	93	47.6	0	0	---	0.00	30.010 
06:40	49.4	49.4	49.4	93	47.5	0	0	---	0.00	30.010 
06:45	49.4	49.4	49.4	93	47.5	0	0	---	0.00	30.011 
06:50	49.2	49.2	49.2	93	47.3	0	0	---	0.00	30.011 
06:55	49.2	49.2	49.2	93	47.3	0	0	---	0.00	30.011 
07:00	49.2	49.2	49.2	93	47.3	0	0	---	0.00	30.011 
07:05	49.2	49.2	49.2	93	47.3	0	0	---	0.00	30.011 
07:10	49.4	49.4	49.4	93	47.5	0	0	---	0.00	30.011 
07:15	49.5	49.5	49.5	93	47.6	0	0	---	0.00	30.011 
07:20	49.8	49.8	49.8	94	48.1	0	0	---	0.00	30.011 
07:25	49.9	49.9	49.9	94	48.2	0	0	---	0.00	30.011 
07:30	50.1	50.1	50.1	94	48.4	0	0	---	0.00	30.018 
07:35	50.2	50.2	50.2	94	48.5	0	0	---	0.00	30.018 
07:40	50.5	50.5	50.5	94	48.8	0	0	---	0.00	30.018 
07:45	50.8	50.8	50.8	94	49.1	0	0	---	0.00	30.022 
07:50	51.1	51.1	51.1	94	49.4	0	1	315	0.00	30.022 
07:55	51.6	51.6	51.6	94	49.9	0	1	315	0.00	30.022 
08:00	52.0	52.0	52.0	94	50.3	0	0	---	0.00	30.024 
08:05	52.3	52.3	52.3	94	50.6	0	1	315	0.00	30.024 
08:10	52.8	52.8	52.8	93	50.8	0	1	315	0.00	30.024 
08:15	53.2	53.2	53.2	93	51.2	0	1	315	0.00	30.026 
08:20	53.5	53.5	53.5	92	51.2	0	1	315	0.00	30.026 
08:25	53.9	53.9	53.9	92	51.6	0	1	315	0.00	30.026 
08:30	54.4	54.4	54.4	91	51.8	0	1	315	0.00	30.023 
08:35	55.0	55.0	55.0	91	52.4	0	0	---	0.00	30.023 
08:40	55.4	55.4	55.4	89	52.2	0	1	315	0.00	30.023 
08:45	56.0	56.0	56.0	88	52.5	0	1	315	0.00	30.019 
08:50	56.5	56.5	56.5	87	52.7	0	1	315	0.00	30.019 
08:55	57.0	57.0	57.0	85	52.5	0	1	315	0.00	30.019 
09:00	57.5	57.5	57.5	83	52.4	0	1	315	0.00	30.022 
09:05	57.6	57.6	57.6	81	51.8	0	1	315	0.00	30.022 
09:10	58.1	58.1	58.1	80	52.0	0	1	270	0.00	30.022 
09:15	58.9	58.9	58.9	80	52.7	0	1	270	0.00	30.028 
09:20	59.2	59.2	59.2	76	51.6	1	3	270	0.00	30.028 
09:25	59.2	59.2	59.2	74	50.9	1	3	270	0.00	30.028 
09:30	59.3	59.3	59.3	74	51.0	1	3	270	0.00	30.027 
09:35	59.6	59.6	59.6	74	51.3	1	3	270	0.00	30.027 
09:40	59.9	59.9	59.9	74	51.6	1	3	270	0.00	30.027 
09:45	60.2	60.2	60.2	72	51.1	1	2	270	0.00	30.028 
09:50	60.7	60.7	60.7	73	52.0	0	2	270	0.00	30.028 
09:55	61.3	61.3	61.3	72	52.2	0	1	270	0.00	30.028 
10:00	61.8	61.8	61.8	69	51.5	0	2	270	0.00	30.024 
10:05	62.4	62.4	62.4	68	51.7	0	1	270	0.00	30.024 
10:10	62.9	62.9	62.9	66	51.4	1	2	270	0.00	30.024 
10:15	63.1	63.1	63.1	65	51.1	0	2	270	0.00	30.023 
10:20	63.5	63.5	63.5	65	51.5	0	3	270	0.00	30.023 
10:25	63.9	63.9	63.9	64	51.5	0	2	270	0.00	30.023 
10:30	64.0	64.0	64.0	62	50.7	1	2	270	0.00	30.025 
10:35	64.5	64.5	64.5	62	51.2	0	1	270	0.00	30.025 
10:40	64.8	64.8	64.8	62	51.5	0	1	270	0.00	30.025 
10:45	65.5	65.5	65.5	60	51.2	0	1	270	0.00	30.021 
10:50	65.8	65.8	65.8	59	51.1	0	2	270	0.00	30.021 
10:55	66.1	66.1	66.1	60	51.8	1	2	270	0.00	30.021 
11:00	66.1	66.1	66.1	58	50.9	1	2	270	0.00	30.023 
11:05	66.1	66.1	66.1	56	49.9	1	2	270	0.00	30.023 
11:10	66.6	66.6	66.6	58	51.4	0	1	270	0.00	30.023 
11:15	67.1	67.1	67.1	57	51.3	1	3	270	0.00	30.024 
11:20	67.3	67.3	67.3	56	51.1	1	4	338	0.00	30.024 
11:25	67.8	67.8	67.8	57	52.0	0	2	338	0.00	30.024 
11:30	68.4	68.4	68.4	54	51.1	1	2	338	0.00	30.023 
11:35	68.3	68.3	68.3	53	50.5	1	3	338	0.00	30.023 
11:40	68.1	68.1	68.1	54	50.8	0	2	338	0.00	30.023 
11:45	67.8	67.8	67.8	52	49.5	1	3	338	0.00	30.021 
11:50	67.6	67.6	67.6	54	50.4	0	2	338	0.00	30.021 
11:55	67.3	67.3	67.3	53	49.6	1	2	338	0.00	30.021 
12:00	67.1	67.1	67.1	54	49.9	1	3	338	0.00	30.025 
12:05	67.1	67.1	67.1	55	50.4	1	2	292	0.00	30.025 
12:10	67.1	67.1	67.1	54	49.9	1	3	292	0.00	30.025 
12:15	67.3	67.3	67.3	54	50.1	1	3	292	0.00	30.020 
12:20	67.6	67.6	67.6	54	50.4	0	3	292	0.00	30.020 
12:25	68.1	68.1	68.1	54	50.8	0	2	292	0.00	30.020 
12:30	68.1	68.1	68.1	55	51.3	0	2	292	0.00	30.021 
12:35	68.3	68.3	68.3	54	51.0	1	3	292	0.00	30.021 
12:40	67.8	67.8	67.8	54	50.5	1	4	292	0.00	30.021 
12:45	67.6	67.6	67.6	54	50.4	0	4	292	0.00	30.019 
12:50	67.8	67.8	67.8	57	52.0	0	2	292	0.00	30.019 
12:55	68.4	68.4	68.4	58	53.0	0	1	292	0.00	30.019 
13:00	69.4	69.4	69.4	55	52.5	1	2	292	0.00	30.014 
13:05	70.1	70.1	70.1	54	52.7	1	3	292	0.00	30.014 
13:10	70.6	70.6	70.6	52	52.1	1	3	292	0.00	30.014 
13:15	70.6	70.6	70.6	52	52.1	2	5	292	0.00	30.005 
13:20	71.1	71.1	71.1	53	53.1	1	3	315	0.00	30.005 
13:25	71.6	71.6	71.6	51	52.5	1	4	315	0.00	30.005 
13:30	71.6	71.6	71.6	49	51.4	2	4	315	0.00	30.001 
13:35	70.9	70.9	70.9	51	51.9	1	3	315	0.00	30.001 
13:40	70.9	70.9	70.9	52	52.4	1	3	315	0.00	30.001 
13:45	71.1	71.1	71.1	53	53.1	0	3	315	0.00	30.000 
13:50	71.8	71.8	71.8	52	53.2	1	3	315	0.00	30.000 
13:55	72.1	72.1	72.1	51	53.0	0	2	315	0.00	30.000 
14:00	72.3	72.3	72.3	53	54.2	1	3	315	0.00	29.999 
14:05	71.6	71.6	71.6	47	50.3	2	4	315	0.00	29.999 
14:10	71.3	71.3	71.3	51	52.2	1	3	315	0.00	29.999 
14:15	70.9	70.9	70.9	50	51.3	2	5	292	0.00	30.001 
14:20	70.8	70.8	70.8	52	52.3	1	3	292	0.00	30.001 
14:25	71.3	71.3	71.3	51	52.2	1	3	292	0.00	30.001 
14:30	71.5	71.5	71.5	51	52.4	1	3	292	0.00	29.994 
14:35	71.6	71.6	71.6	53	53.5	1	2	292	0.00	29.994 
14:40	72.0	72.0	72.0	52	53.4	1	4	292	0.00	29.994 
14:45	72.7	72.7	72.7	50	53.0	1	3	292	0.00	29.988 
14:50	73.2	73.2	73.2	50	53.4	1	3	292	0.00	29.988 
14:55	73.7	73.7	73.7	49	53.3	1	3	292	0.00	29.988 
15:00	73.3	73.3	73.3	50	53.5	2	5	270	0.00	29.987 
15:05	73.3	73.3	73.3	51	54.1	1	3	270	0.00	29.987 
15:10	73.2	73.2	73.2	51	54.0	2	4	292	0.00	29.987 
15:15	73.3	73.3	73.3	52	54.6	2	4	292	0.00	29.986 
15:20	73.9	73.9	73.9	53	55.7	1	2	292	0.00	29.986 
15:25	74.4	74.4	74.4	50	54.5	1	3	292	0.00	29.986 
15:30	74.6	74.6	74.6	51	55.3	1	2	292	0.00	29.983 
15:35	74.2	74.2	74.2	51	54.9	1	3	292	0.00	29.983 
15:40	74.0	74.0	74.0	50	54.2	1	4	292	0.00	29.983 
15:45	73.5	73.5	73.5	51	54.2	2	4	292	0.00	29.980 
15:50	73.9	73.9	73.9	52	55.1	1	3	292	0.00	29.980 
15:55	74.6	74.6	74.6	52	55.8	1	5	292	0.00	29.980 
16:00	74.7	74.7	74.7	50	54.8	1	5	270	0.00	29.971 
16:05	74.9	74.9	74.9	48	53.9	1	4	292	0.00	29.971 
16:10	74.2	74.2	74.2	50	54.3	2	5	292	0.00	29.971 
16:15	74.0	74.0	74.0	51	54.7	2	5	292	0.00	29.971 
16:20	74.4	74.4	74.4	50	54.5	1	2	292	0.00	29.971 
16:25	74.0	74.0	74.0	50	54.2	2	4	292	0.00	29.971 
16:30	73.3	73.3	73.3	51	54.1	1	5	338	0.00	29.972 
16:35	73.0	73.0	73.0	50	53.2	1	5	292	0.00	29.972 
16:40	72.7	72.7	72.7	51	53.5	0	2	270	0.00	29.972 
16:45	72.3	72.3	72.3	53	54.2	0	2	292	0.00	29.971 
16:50	72.3	72.3	72.3	53	54.2	0	2	292	0.00	29.971 
16:55	72.0	72.0	72.0	52	53.4	2	5	292	0.00	29.971 
17:00	70.4	70.4	70.4	62	56.7	4	10	270	0.00	29.985 
17:05	67.8	67.8	67.8	75	59.6	2	5	270	0.01	29.985 
17:10	66.0	66.0	66.0	79	59.3	0	2	270	0.00	29.985 
17:15	64.7	64.7	64.7	81	58.7	0	1	270	0.01	30.002 
17:20	64.0	64.0	64.0	83	58.7	0	1	270	0.00	30.002 
17:25	63.7	63.7	63.7	84	58.8	0	0	---	0.01	30.002 
17:30	63.4	63.4	63.4	85	58.8	0	0	---	0.00	30.000 
17:35	63.2	63.2	63.2	86	58.9	0	0	---	0.01	30.000 
17:40	63.2	63.2	63.2	87	59.3	0	0	---	0.00	30.000 
17:45	63.1	63.1	63.1	87	59.2	0	0	---	0.01	29.992 
17:50	63.1	63.1	63.1	88	59.5	0	1	270	0.01	29.992 
17:55	63.2	63.2	63.2	89	59.9	0	1	270	0.00	29.992 
18:00	63.7	63.7	63.7	90	60.7	0	1	270	0.00	29.986 
18:05	64.2	64.2	64.2	90	61.2	0	1	270	0.00	29.986 
18:10	64.5	64.5	64.5	89	61.2	0	0	---	0.00	29.986 
18:15	64.8	64.8	64.8	89	61.5	0	0	---	0.00	29.982 
18:20	64.8	64.8	64.8	88	61.2	0	1	270	0.00	29.982 
18:25	65.0	65.0	65.0	88	61.4	0	0	---	0.00	29.982 
18:30	65.5	65.5	65.5	89	62.2	0	1	270	0.00	29.980 
18:35	65.8	65.8	65.8	88	62.1	0	1	270	0.00	29.980 
18:40	66.0	66.0	66.0	88	62.3	0	0	---	0.00	29.980 
18:45	66.3	66.3	66.3	88	62.6	0	1	270	0.00	29.977 
18:50	66.4	66.4	66.4	86	62.1	0	1	270	0.00	29.977 
18:55	66.6	66.6	66.6	85	61.9	0	1	270	0.00	29.977 
19:00	66.8	66.8	66.8	84	61.8	0	1	270	0.00	29.974 
19:05	66.9	66.9	66.9	82	61.2	0	1	270	0.00	29.974 
19:10	66.8	66.8	66.8	81	60.8	0	1	270	0.00	29.974 
19:15	66.8	66.8	66.8	81	60.8	0	1	270	0.00	29.970 
19:20	66.9	66.9	66.9	81	60.9	0	0	---	0.00	29.970 
19:25	66.9	66.9	66.9	81	60.9	0	1	270	0.00	29.970 
19:30	66.9	66.9	66.9	81	60.9	0	1	270	0.00	29.969 
19:35	66.8	66.8	66.8	80	60.4	0	1	270	0.00	29.969 
19:40	66.6	66.6	66.6	80	60.2	0	1	270	0.00	29.969 
19:45	66.4	66.4	66.4	80	60.0	0	1	270	0.00	29.967 
19:50	66.3	66.3	66.3	81	60.3	0	0	---	0.00	29.967 
19:55	66.3	66.3	66.3	81	60.3	0	1	270	0.00	29.967 
20:00	66.1	66.1	66.1	81	60.1	0	1	270	0.00	29.972 
20:05	66.1	66.1	66.1	81	60.1	0	1	270	0.00	29.972 
20:10	66.1	66.1	66.1	81	60.1	0	1	270	0.00	29.972 
20:15	66.0	66.0	66.0	82	60.3	0	0	---	0.00	29.967 
20:20	65.8	65.8	65.8	82	60.1	0	0	---	0.00	29.967 
20:25	65.6	65.6	65.6	82	59.9	0	1	270	0.00	29.967 
20:30	65.5	65.5	65.5	81	59.5	0	1	270	0.00	29.968 
20:35	65.3	65.3	65.3	81	59.3	0	1	270	0.00	29.968 
20:40	65.2	65.2	65.2	82	59.6	0	1	270	0.00	29.968 
20:45	65.0	65.0	65.0	82	59.4	0	0	---	0.00	29.968 
20:50	64.8	64.8	64.8	82	59.2	0	1	270	0.00	29.968 
20:55	64.7	64.7	64.7	83	59.4	0	0	---	0.00	29.968 
21:00	64.5	64.5	64.5	83	59.2	0	0	---	0.00	29.969 
21:05	64.3	64.3	64.3	84	59.4	0	0	---	0.00	29.969 
21:10	64.2	64.2	64.2	84	59.3	0	0	---	0.00	29.969 
21:15	64.0	64.0	64.0	85	59.4	0	1	270	0.00	29.966 
21:20	63.9	63.9	63.9	85	59.3	0	1	270	0.00	29.966 
21:25	63.7	63.7	63.7	86	59.4	0	1	270	0.00	29.966 
21:30	63.9	63.9	63.9	87	59.9	0	1	270	0.00	29.969 
21:35	63.7	63.7	63.7	87	59.8	0	0	---	0.00	29.969 
21:40	63.7	63.7	63.7	87	59.8	0	0	---	0.00	29.969 
21:45	63.5	63.5	63.5	87	59.6	0	0	---	0.00	29.967 
21:50	63.4	63.4	63.4	88	59.8	0	0	---	0.00	29.967 
21:55	63.2	63.2	63.2	88	59.6	0	0	---	0.00	29.967 
22:00	63.1	63.1	63.1	88	59.5	0	1	270	0.00	29.972 
22:05	62.9	62.9	62.9	89	59.6	0	0	---	0.00	29.972 
22:10	62.7	62.7	62.7	89	59.4	0	0	---	0.00	29.972 
22:15	62.6	62.6	62.6	89	59.3	0	0	---	0.00	29.971 
22:20	62.4	62.4	62.4	90	59.4	0	0	---	0.00	29.971 
22:25	62.4	62.4	62.4	90	59.4	0	0	---	0.00	29.971 
22:30	62.1	62.1	62.1	90	59.1	0	0	---	0.00	29.976 
22:35	62.0	62.0	62.0	90	59.0	0	0	---	0.00	29.976 
22:40	62.0	62.0	62.0	90	59.0	0	0	---	0.00	29.976 
22:45	62.0	62.0	62.0	91	59.3	0	1	270	0.00	29.978 
22:50	62.1	62.1	62.1	91	59.4	0	0	---	0.00	29.978 
22:55	62.1	62.1	62.1	91	59.4	0	0	---	0.00	29.978 
23:00	62.1	62.1	62.1	92	59.7	0	0	---	0.00	29.978 
23:05	62.1	62.1	62.1	92	59.7	0	0	---	0.00	29.978 
23:10	62.0	62.0	62.0	92	59.6	0	0	---	0.00	29.978 
23:15	61.8	61.8	61.8	92	59.4	0	0	---	0.00	29.977 
23:20	61.8	61.8	61.8	92	59.4	0	0	---	0.00	29.977 
23:25	61.6	61.6	61.6	92	59.2	0	0	---	0.00	29.977 
23:30	61.5	61.5	61.5	92	59.2	0	0	---	0.00	29.975 
23:35	61.3	61.3	61.3	92	59.0	0	0	---	0.00	29.975 
23:40	61.2	61.2	61.2	92	58.9	0	0	---	0.00	29.975 
23:45	61.0	61.0	61.0	92	58.7	0	0	---	0.00	29.974 
23:50	60.9	60.9	60.9	92	58.6	0	0	---	0.00	29.974 
23:55	60.9	60.9	60.9	92	58.6	0	0	---	0.00	29.974 

CoCoRaHS
IN-AL-39
A2 Web Hosting
Creative Commons License
GoDaddy
search engine by freefind advanced

loaded 2018-11-15 16:51:08 • last modified 2010-11-18 10:43:29
Privacy PolicyDisclaimer
• wx.awcolley.com is powered by PmWiki v.2002016 •
• all content (unless otherwise noted) © 2018 A W Colley